createdAt,value
2024-03-11T00:00:45.182Z,7.80
2024-03-11T00:03:14.335Z,7.90
2024-03-11T00:05:44.800Z,7.90
2024-03-11T00:08:17.753Z,7.90
2024-03-11T00:10:49.327Z,7.80
2024-03-11T00:13:19.084Z,7.80
2024-03-11T00:15:47.330Z,7.80
2024-03-11T00:18:16.290Z,7.90
2024-03-11T00:20:44.820Z,7.90
2024-03-11T00:23:12.997Z,7.80
2024-03-11T00:25:41.937Z,7.90
2024-03-11T00:28:12.695Z,7.90
2024-03-11T00:30:40.967Z,7.90
2024-03-11T00:33:11.543Z,8.00
2024-03-11T00:35:44.969Z,8.00
2024-03-11T00:38:13.853Z,8.00
2024-03-11T00:40:42.168Z,8.00
2024-03-11T00:43:12.247Z,8.00
2024-03-11T00:45:40.843Z,8.00
2024-03-11T00:48:16.080Z,8.00
2024-03-11T00:50:44.402Z,8.10
2024-03-11T00:53:13.288Z,8.00
2024-03-11T00:55:41.341Z,8.10
2024-03-11T00:58:14.082Z,8.10
2024-03-11T01:00:43.001Z,8.10
2024-03-11T01:03:11.233Z,8.10
2024-03-11T01:05:40.641Z,8.10
2024-03-11T01:08:10.379Z,8.10
2024-03-11T01:10:38.830Z,8.10
2024-03-11T01:13:07.221Z,8.10
2024-03-11T01:15:36.851Z,8.10
2024-03-11T01:18:05.451Z,8.10
2024-03-11T01:20:33.721Z,8.10
2024-03-11T01:23:02.134Z,8.20
2024-03-11T01:25:30.327Z,8.10
2024-03-11T01:27:58.367Z,8.10
2024-03-11T01:30:26.623Z,8.10
2024-03-11T01:32:56.305Z,8.10
2024-03-11T01:35:26.835Z,8.10
2024-03-11T01:37:54.913Z,8.10
2024-03-11T01:40:23.584Z,8.10
2024-03-11T01:42:51.754Z,8.10
2024-03-11T01:45:19.921Z,8.20
2024-03-11T01:47:48.541Z,8.20
2024-03-11T01:50:19.421Z,8.20
2024-03-11T01:52:51.165Z,8.20
2024-03-11T01:55:20.875Z,8.20
2024-03-11T01:57:52.881Z,8.20
2024-03-11T02:00:23.284Z,8.20
2024-03-11T02:02:55.713Z,8.20
2024-03-11T02:05:27.890Z,8.30
2024-03-11T02:07:59.556Z,8.30
2024-03-11T02:10:28.103Z,8.20
2024-03-11T02:12:58.785Z,8.30
2024-03-11T02:15:27.069Z,8.30
2024-03-11T02:17:56.330Z,8.30
2024-03-11T02:20:28.121Z,8.20
2024-03-11T02:22:58.553Z,8.20
2024-03-11T02:25:29.771Z,8.00
2024-03-11T02:28:01.233Z,8.20
2024-03-11T02:30:29.652Z,8.20
2024-03-11T02:32:58.564Z,8.20
2024-03-11T02:35:27.344Z,8.20
2024-03-11T02:37:56.440Z,8.10
2024-03-11T02:40:27.935Z,8.20
2024-03-11T02:42:59.402Z,8.20
2024-03-11T02:45:31.344Z,8.20
2024-03-11T02:47:59.949Z,8.20
2024-03-11T02:50:28.266Z,8.30
2024-03-11T02:52:57.541Z,8.30
2024-03-11T02:55:26.074Z,8.20
2024-03-11T02:57:54.213Z,8.30
2024-03-11T03:00:23.864Z,8.20
2024-03-11T03:02:52.402Z,8.20
2024-03-11T03:05:20.960Z,8.10
2024-03-11T03:07:49.273Z,8.10
2024-03-11T03:10:18.735Z,8.00
2024-03-11T03:12:47.186Z,8.10
2024-03-11T03:15:15.418Z,8.10
2024-03-11T03:17:45.493Z,8.20
2024-03-11T03:20:13.893Z,8.30
2024-03-11T03:22:42.182Z,8.10
2024-03-11T03:25:11.317Z,8.10
2024-03-11T03:27:40.142Z,8.10
2024-03-11T03:30:10.229Z,8.10
2024-03-11T03:32:39.382Z,8.10
2024-03-11T03:35:11.024Z,8.10
2024-03-11T03:37:39.559Z,8.10
2024-03-11T03:40:17.672Z,8.10
2024-03-11T03:42:49.364Z,8.00
2024-03-11T03:45:18.400Z,8.00
2024-03-11T03:47:48.249Z,8.00
2024-03-11T03:50:19.180Z,8.00
2024-03-11T03:52:47.658Z,7.90
2024-03-11T03:55:16.320Z,7.90
2024-03-11T03:57:45.808Z,7.80
2024-03-11T04:00:17.934Z,7.80
2024-03-11T04:02:46.989Z,7.80
2024-03-11T04:05:18.033Z,7.70
2024-03-11T04:07:46.941Z,7.70
2024-03-11T04:10:18.750Z,7.80
2024-03-11T04:12:49.649Z,7.90
2024-03-11T04:15:22.368Z,7.90
2024-03-11T04:17:52.307Z,7.90
2024-03-11T04:20:28.326Z,8.10
2024-03-11T04:22:58.183Z,8.30
2024-03-11T04:25:28.772Z,8.50
2024-03-11T04:27:58.296Z,8.60
2024-03-11T04:30:31.183Z,8.70
2024-03-11T04:33:00.226Z,8.90
2024-03-11T04:35:31.369Z,8.80
2024-03-11T04:38:00.940Z,9.00
2024-03-11T04:40:31.254Z,8.90
2024-03-11T04:42:59.848Z,8.70
2024-03-11T04:45:29.016Z,8.80
2024-03-11T04:47:58.778Z,8.60
2024-03-11T04:50:27.339Z,8.30
2024-03-11T04:52:59.152Z,8.30
2024-03-11T04:55:28.416Z,8.30
2024-03-11T04:57:57.419Z,8.20
2024-03-11T05:00:28.626Z,8.30
2024-03-11T05:02:58.043Z,8.50
2024-03-11T05:05:26.731Z,8.40
2024-03-11T05:07:55.010Z,8.40
2024-03-11T05:10:24.607Z,8.60
2024-03-11T05:12:52.692Z,8.50
2024-03-11T05:15:21.169Z,8.50
2024-03-11T05:17:50.112Z,8.70
2024-03-11T05:20:20.149Z,9.00
2024-03-11T05:22:49.336Z,8.90
2024-03-11T05:25:18.891Z,8.90
2024-03-11T05:27:49.723Z,9.10
2024-03-11T05:30:18.540Z,9.30
2024-03-11T05:32:49.482Z,9.50
2024-03-11T05:35:21.857Z,9.60
2024-03-11T05:37:52.772Z,9.30
2024-03-11T05:40:20.912Z,9.20
2024-03-11T05:42:50.386Z,9.30
2024-03-11T05:45:18.615Z,9.40
2024-03-11T05:47:47.453Z,9.50
2024-03-11T05:50:17.657Z,9.50
2024-03-11T05:52:47.378Z,9.30
2024-03-11T05:55:16.019Z,9.10
2024-03-11T05:57:45.414Z,8.80
2024-03-11T06:00:18.437Z,8.50
2024-03-11T06:02:47.911Z,8.10
2024-03-11T06:05:17.819Z,8.00
2024-03-11T06:07:46.081Z,7.90
2024-03-11T06:10:14.240Z,8.00
2024-03-11T06:12:44.286Z,8.00
2024-03-11T06:15:13.244Z,8.10
2024-03-11T06:17:43.341Z,8.20
2024-03-11T06:20:15.296Z,8.20
2024-03-11T06:22:44.502Z,8.20
2024-03-11T06:25:13.281Z,8.10
2024-03-11T06:27:41.640Z,8.00
2024-03-11T06:30:10.800Z,7.90
2024-03-11T06:32:40.894Z,7.90
2024-03-11T06:35:11.054Z,8.00
2024-03-11T06:37:40.016Z,8.00
2024-03-11T06:40:09.382Z,8.00
2024-03-11T06:42:37.824Z,7.90
2024-03-11T06:45:07.580Z,7.90
2024-03-11T06:47:35.964Z,7.90
2024-03-11T06:50:04.440Z,8.00
2024-03-11T06:52:35.056Z,8.00
2024-03-11T06:55:03.669Z,8.10
2024-03-11T06:57:32.040Z,8.20
2024-03-11T07:00:00.203Z,8.20
2024-03-11T07:02:28.552Z,8.20
2024-03-11T07:04:58.305Z,8.30
2024-03-11T07:07:26.992Z,8.40
2024-03-11T07:09:56.478Z,8.50
2024-03-11T07:12:24.643Z,8.50
2024-03-11T07:14:52.795Z,8.60
2024-03-11T07:17:21.715Z,8.70
2024-03-11T07:19:50.949Z,8.90
2024-03-11T07:22:18.971Z,9.00
2024-03-11T07:24:47.528Z,9.10
2024-03-11T07:27:17.537Z,9.20
2024-03-11T07:29:46.035Z,9.40
2024-03-11T07:32:14.387Z,9.50
2024-03-11T07:34:43.730Z,9.40
2024-03-11T07:37:11.787Z,9.40
2024-03-11T07:39:41.309Z,9.50
2024-03-11T07:42:09.633Z,9.60
2024-03-11T07:44:39.372Z,9.90
2024-03-11T07:47:09.245Z,10.00
2024-03-11T07:49:37.906Z,10.00
2024-03-11T07:52:06.541Z,10.00
2024-03-11T07:54:35.075Z,10.00
2024-03-11T07:57:03.195Z,10.20
2024-03-11T07:59:32.050Z,10.30
2024-03-11T08:02:01.538Z,10.20
2024-03-11T08:04:30.047Z,10.30
2024-03-11T08:06:58.858Z,10.10
2024-03-11T08:09:29.579Z,10.20
2024-03-11T08:11:58.232Z,9.90
2024-03-11T08:14:27.233Z,9.70
2024-03-11T08:16:55.276Z,9.70
2024-03-11T08:19:24.757Z,9.70
2024-03-11T08:21:52.832Z,9.80
2024-03-11T08:24:21.256Z,10.00
2024-03-11T08:26:49.669Z,10.00
2024-03-11T08:29:18.654Z,10.20
2024-03-11T08:31:48.485Z,10.40
2024-03-11T08:34:17.307Z,10.60
2024-03-11T08:36:46.748Z,10.70
2024-03-11T08:39:15.821Z,10.80
2024-03-11T08:41:43.981Z,10.50
2024-03-11T08:44:15.568Z,10.40
2024-03-11T08:46:44.672Z,10.20
2024-03-11T08:49:14.383Z,10.40
2024-03-11T08:51:42.806Z,10.40
2024-03-11T08:54:12.217Z,10.30
2024-03-11T08:56:41.066Z,10.10
2024-03-11T08:59:13.002Z,9.90
2024-03-11T09:01:42.464Z,10.00
2024-03-11T09:04:11.944Z,10.00
2024-03-11T09:06:44.873Z,10.10
2024-03-11T09:09:16.004Z,10.10
2024-03-11T09:11:44.337Z,10.20
2024-03-11T09:14:12.967Z,10.30
2024-03-11T09:16:41.156Z,10.50
2024-03-11T09:19:11.541Z,10.70
2024-03-11T09:21:40.683Z,10.80
2024-03-11T09:24:09.504Z,10.70
2024-03-11T09:26:39.409Z,10.50
2024-03-11T09:29:10.704Z,10.40
2024-03-11T09:31:38.790Z,10.40
2024-03-11T09:34:08.425Z,10.50
2024-03-11T09:36:37.500Z,10.60
2024-03-11T09:39:07.382Z,10.80
2024-03-11T09:41:42.200Z,10.90
2024-03-11T09:44:20.314Z,11.00
2024-03-11T09:46:50.433Z,11.10
2024-03-11T09:49:20.735Z,11.20
2024-03-11T09:51:50.068Z,11.50
2024-03-11T09:54:19.238Z,11.50
2024-03-11T09:56:49.805Z,11.60
2024-03-11T09:59:20.364Z,11.70
2024-03-11T10:01:53.701Z,12.00
2024-03-11T10:04:24.029Z,12.30
2024-03-11T10:06:59.124Z,12.40
2024-03-11T10:09:29.541Z,12.30
2024-03-11T10:12:09.809Z,12.40
2024-03-11T10:14:40.271Z,12.60
2024-03-11T10:17:25.298Z,12.70
2024-03-11T10:19:55.899Z,12.70
2024-03-11T10:22:25.092Z,12.90
2024-03-11T10:24:56.731Z,13.00
2024-03-11T10:27:30.178Z,13.20
2024-03-11T10:29:58.721Z,13.20
2024-03-11T10:32:38.077Z,13.60
2024-03-11T10:35:10.212Z,13.60
2024-03-11T10:37:39.457Z,13.50
2024-03-11T10:40:11.816Z,13.60
2024-03-11T10:42:44.255Z,13.30
2024-03-11T10:45:15.646Z,13.20
2024-03-11T10:47:45.533Z,13.10
2024-03-11T10:50:16.227Z,13.10
2024-03-11T10:52:45.138Z,13.40
2024-03-11T10:55:15.154Z,13.30
2024-03-11T10:57:47.586Z,13.30
2024-03-11T11:00:24.696Z,13.50
2024-03-11T11:03:01.032Z,13.60
2024-03-11T11:05:34.892Z,13.20
2024-03-11T11:08:04.781Z,13.20
2024-03-11T11:10:37.836Z,13.20
2024-03-11T11:13:08.408Z,12.90
2024-03-11T11:15:38.559Z,12.70
2024-03-11T11:18:10.980Z,12.50
2024-03-11T11:20:40.029Z,12.50
2024-03-11T11:23:11.649Z,12.50
2024-03-11T11:25:42.268Z,12.80
2024-03-11T11:28:14.663Z,12.90
2024-03-11T11:30:44.918Z,13.30
2024-03-11T11:33:33.856Z,13.60
2024-03-11T11:36:05.270Z,13.70
2024-03-11T11:38:36.648Z,13.30
2024-03-11T11:41:37.889Z,13.30
2024-03-11T11:44:08.969Z,13.50
2024-03-11T11:46:43.457Z,13.20
2024-03-11T11:49:19.110Z,13.30
2024-03-11T11:51:52.661Z,13.50
2024-03-11T11:54:35.664Z,13.50
2024-03-11T11:57:12.527Z,13.90
2024-03-11T11:59:44.180Z,13.60
2024-03-11T12:02:20.460Z,13.60
2024-03-11T12:04:52.230Z,13.80
2024-03-11T12:07:24.830Z,13.90
2024-03-11T12:09:55.907Z,14.30
2024-03-11T12:12:33.685Z,14.50
2024-03-11T12:15:04.402Z,14.90
2024-03-11T12:17:33.442Z,14.70
2024-03-11T12:20:16.083Z,14.50
2024-03-11T12:22:45.896Z,14.30
2024-03-11T12:25:15.378Z,14.60
2024-03-11T12:27:45.604Z,14.90
2024-03-11T12:30:20.560Z,15.00
2024-03-11T12:32:57.708Z,14.70
2024-03-11T12:35:29.276Z,15.00
2024-03-11T12:38:00.097Z,15.30
2024-03-11T12:40:31.221Z,15.10
2024-03-11T12:43:02.843Z,15.50
2024-03-11T12:45:43.727Z,15.60
2024-03-11T12:48:14.310Z,15.30
2024-03-11T12:50:43.198Z,15.10
2024-03-11T12:53:15.047Z,14.80
2024-03-11T12:55:44.254Z,14.60
2024-03-11T12:58:16.633Z,14.80
2024-03-11T13:00:47.610Z,14.80
2024-03-11T13:03:20.499Z,14.60
2024-03-11T13:05:56.591Z,14.50
2024-03-11T13:08:26.323Z,14.20
2024-03-11T13:11:04.520Z,14.20
2024-03-11T13:13:33.701Z,14.10
2024-03-11T13:16:02.269Z,14.50
2024-03-11T13:18:30.918Z,14.80
2024-03-11T13:21:00.166Z,15.30
2024-03-11T13:23:30.220Z,15.60
2024-03-11T13:25:58.293Z,15.60
2024-03-11T13:28:27.612Z,15.70
2024-03-11T13:30:56.948Z,16.10
2024-03-11T13:33:26.077Z,16.30
2024-03-11T13:35:58.635Z,15.70
2024-03-11T13:38:28.086Z,15.30
2024-03-11T13:40:57.800Z,15.00
2024-03-11T13:43:25.883Z,14.90
2024-03-11T13:45:55.567Z,14.80
2024-03-11T13:48:26.177Z,14.90
2024-03-11T13:50:57.729Z,14.70
2024-03-11T13:53:25.905Z,14.70
2024-03-11T13:55:54.232Z,14.50
2024-03-11T13:58:25.723Z,14.40
2024-03-11T14:00:54.427Z,14.40
2024-03-11T14:03:22.727Z,14.40
2024-03-11T14:05:51.276Z,14.30
2024-03-11T14:08:19.571Z,14.70
2024-03-11T14:10:49.874Z,14.80
2024-03-11T14:13:18.954Z,15.20
2024-03-11T14:15:48.748Z,15.30
2024-03-11T14:18:16.892Z,15.40
2024-03-11T14:20:45.173Z,15.50
2024-03-11T14:23:13.223Z,15.70
2024-03-11T14:25:43.228Z,15.80
2024-03-11T14:28:13.382Z,15.80
2024-03-11T14:30:42.723Z,16.10
2024-03-11T14:33:14.109Z,16.10
2024-03-11T14:35:43.882Z,16.20
2024-03-11T14:38:12.846Z,15.70
2024-03-11T14:40:44.814Z,15.80
2024-03-11T14:43:15.117Z,15.90
2024-03-11T14:45:44.096Z,15.80
2024-03-11T14:48:15.263Z,16.00
2024-03-11T14:50:46.948Z,15.90
2024-03-11T14:53:15.968Z,16.00
2024-03-11T14:55:47.647Z,16.20
2024-03-11T14:58:19.793Z,16.30
2024-03-11T15:00:50.065Z,16.00
2024-03-11T15:03:21.413Z,16.20
2024-03-11T15:05:50.672Z,16.30
2024-03-11T15:08:21.466Z,16.40
2024-03-11T15:10:50.438Z,16.40
2024-03-11T15:13:22.248Z,16.30
2024-03-11T15:15:53.428Z,15.90
2024-03-11T15:18:25.049Z,16.00
2024-03-11T15:20:54.072Z,15.90
2024-03-11T15:23:24.318Z,15.90
2024-03-11T15:25:54.855Z,15.80
2024-03-11T15:28:23.210Z,16.10
2024-03-11T15:30:52.563Z,16.20
2024-03-11T15:33:22.902Z,16.10
2024-03-11T15:35:51.875Z,15.90
2024-03-11T15:38:22.420Z,15.80
2024-03-11T15:40:51.765Z,15.70
2024-03-11T15:43:21.025Z,15.50
2024-03-11T15:45:49.446Z,15.30
2024-03-11T15:48:19.444Z,15.40
2024-03-11T15:50:51.218Z,15.30
2024-03-11T15:53:19.637Z,15.20
2024-03-11T15:55:48.328Z,15.10
2024-03-11T15:58:16.702Z,14.80
2024-03-11T16:00:46.443Z,14.60
2024-03-11T16:03:15.703Z,14.50
2024-03-11T16:05:46.528Z,14.30
2024-03-11T16:08:19.837Z,14.30
2024-03-11T16:10:50.116Z,14.30
2024-03-11T16:13:17.415Z,14.40
2024-03-11T16:15:45.637Z,14.50
2024-03-11T16:18:14.118Z,14.50
2024-03-11T16:20:42.852Z,14.70
2024-03-11T16:23:10.297Z,14.60
2024-03-11T16:25:41.198Z,14.60
2024-03-11T16:28:11.054Z,14.60
2024-03-11T16:30:39.880Z,14.40
2024-03-11T16:33:10.374Z,14.50
2024-03-11T16:35:38.570Z,14.70
2024-03-11T16:38:07.844Z,14.60
2024-03-11T16:40:36.635Z,14.50
2024-03-11T16:43:06.275Z,14.50
2024-03-11T16:45:35.606Z,14.50
2024-03-11T16:48:04.645Z,14.50
2024-03-11T16:50:32.040Z,14.40
2024-03-11T16:53:01.517Z,14.30
2024-03-11T16:55:32.151Z,14.30
2024-03-11T16:58:01.357Z,14.40
2024-03-11T17:00:34.961Z,14.40
2024-03-11T17:03:04.799Z,14.40
2024-03-11T17:05:32.547Z,14.30
2024-03-11T17:08:00.807Z,14.50
2024-03-11T17:10:29.271Z,14.10
2024-03-11T17:13:00.823Z,13.90
2024-03-11T17:15:31.814Z,13.80
2024-03-11T17:18:00.970Z,13.70
2024-03-11T17:20:35.177Z,13.60
2024-03-11T17:23:06.018Z,13.60
2024-03-11T17:25:37.272Z,13.70
2024-03-11T17:28:10.998Z,13.60
2024-03-11T17:30:41.272Z,13.60
2024-03-11T17:33:10.522Z,13.60
2024-03-11T17:35:39.075Z,13.50
2024-03-11T17:38:10.094Z,13.30
2024-03-11T17:40:38.349Z,13.40
2024-03-11T17:43:09.056Z,13.50
2024-03-11T17:45:36.970Z,13.60
2024-03-11T17:48:09.060Z,13.50
2024-03-11T17:50:36.922Z,13.40
2024-03-11T17:53:05.850Z,13.50
2024-03-11T17:55:33.081Z,13.50
2024-03-11T17:58:05.008Z,13.40
2024-03-11T18:00:34.352Z,13.30
2024-03-11T18:03:03.968Z,13.10
2024-03-11T18:05:33.332Z,13.00
2024-03-11T18:08:02.614Z,13.00
2024-03-11T18:10:33.348Z,12.90
2024-03-11T18:13:02.646Z,12.80
2024-03-11T18:15:30.902Z,12.70
2024-03-11T18:18:01.040Z,12.70
2024-03-11T18:20:29.354Z,12.70
2024-03-11T18:22:59.784Z,12.80
2024-03-11T18:25:30.320Z,12.70
2024-03-11T18:28:00.653Z,12.70
2024-03-11T18:30:29.522Z,12.80
2024-03-11T18:32:58.986Z,12.80
2024-03-11T18:35:28.204Z,12.70
2024-03-11T18:37:58.822Z,12.30
2024-03-11T18:40:27.608Z,12.10
2024-03-11T18:42:55.944Z,12.30
2024-03-11T18:45:27.254Z,12.40
2024-03-11T18:47:56.655Z,12.60
2024-03-11T18:50:25.805Z,12.50
2024-03-11T18:53:00.165Z,12.30
2024-03-11T18:55:31.929Z,12.20
2024-03-11T18:58:01.333Z,12.30
2024-03-11T19:00:33.224Z,12.20
2024-03-11T19:03:06.241Z,12.00
2024-03-11T19:05:35.485Z,11.90
2024-03-11T19:08:04.594Z,11.80
2024-03-11T19:10:34.902Z,11.80
2024-03-11T19:13:05.394Z,11.70
2024-03-11T19:15:34.767Z,11.80
2024-03-11T19:18:03.376Z,11.80
2024-03-11T19:20:32.197Z,11.60
2024-03-11T19:23:00.924Z,11.50
2024-03-11T19:25:30.565Z,11.40
2024-03-11T19:28:01.926Z,11.40
2024-03-11T19:30:30.728Z,11.40
2024-03-11T19:33:02.110Z,11.40
2024-03-11T19:35:31.030Z,11.40
2024-03-11T19:38:33.660Z,11.10
2024-03-11T19:41:11.774Z,11.10
2024-03-11T19:44:13.659Z,11.00
2024-03-11T19:47:11.707Z,10.80
2024-03-11T19:50:16.292Z,10.70
2024-03-11T19:53:30.299Z,10.50
2024-03-11T19:56:41.518Z,10.50
2024-03-11T19:59:42.679Z,10.50
2024-03-11T20:02:39.254Z,10.60
2024-03-11T20:05:56.837Z,10.70
2024-03-11T20:08:51.631Z,10.70
2024-03-11T20:12:01.320Z,10.70
2024-03-11T20:14:41.386Z,10.80
2024-03-11T20:17:42.857Z,10.70
2024-03-11T20:20:49.770Z,10.60
2024-03-11T20:23:58.276Z,10.60
2024-03-11T20:26:32.881Z,10.60
2024-03-11T20:29:10.800Z,10.50
2024-03-11T20:31:51.223Z,10.50
2024-03-11T20:34:20.347Z,10.50
2024-03-11T20:36:49.330Z,10.60
2024-03-11T20:39:17.775Z,10.70
2024-03-11T20:41:46.027Z,10.70
2024-03-11T20:44:14.156Z,10.40
2024-03-11T20:46:44.741Z,10.10
2024-03-11T20:49:14.919Z,9.90
2024-03-11T20:51:43.191Z,9.90
2024-03-11T20:54:11.323Z,9.90
2024-03-11T20:56:40.070Z,9.90
2024-03-11T20:59:08.649Z,9.80
2024-03-11T21:01:36.903Z,10.00
2024-03-11T21:04:07.336Z,10.10
2024-03-11T21:06:35.519Z,10.20
2024-03-11T21:09:04.263Z,10.00
2024-03-11T21:11:32.622Z,9.90
2024-03-11T21:14:01.222Z,9.90
2024-03-11T21:16:30.100Z,9.80
2024-03-11T21:19:09.626Z,9.70
2024-03-11T21:22:04.856Z,9.70
2024-03-11T21:24:48.933Z,9.70
2024-03-11T21:27:24.814Z,9.60
2024-03-11T21:29:55.261Z,9.70
2024-03-11T21:32:24.162Z,9.60
2024-03-11T21:34:53.857Z,9.50
2024-03-11T21:37:23.678Z,9.40
2024-03-11T21:39:54.551Z,9.60
2024-03-11T21:42:23.902Z,9.70
2024-03-11T21:44:52.698Z,9.80
2024-03-11T21:47:23.377Z,9.70
2024-03-11T21:49:51.716Z,9.80
2024-03-11T21:52:19.866Z,9.80
2024-03-11T21:54:50.762Z,9.80
2024-03-11T21:57:19.204Z,9.70
2024-03-11T21:59:49.812Z,9.60
2024-03-11T22:02:20.732Z,9.60
2024-03-11T22:04:52.199Z,9.60
2024-03-11T22:07:21.382Z,9.50
2024-03-11T22:09:53.963Z,9.50
2024-03-11T22:12:22.576Z,9.50
2024-03-11T22:14:50.922Z,9.60
2024-03-11T22:17:19.050Z,9.60
2024-03-11T22:19:47.269Z,9.50
2024-03-11T22:22:15.490Z,9.50
2024-03-11T22:24:43.592Z,9.40
2024-03-11T22:27:13.505Z,9.50
2024-03-11T22:29:41.871Z,9.40
2024-03-11T22:32:13.412Z,9.40
2024-03-11T22:34:41.692Z,9.30
2024-03-11T22:37:10.011Z,9.40
2024-03-11T22:39:38.284Z,9.60
2024-03-11T22:42:11.364Z,9.60
2024-03-11T22:44:41.014Z,9.50
2024-03-11T22:47:09.679Z,9.40
2024-03-11T22:49:38.828Z,9.40
2024-03-11T22:52:08.691Z,9.60
2024-03-11T22:54:38.718Z,9.70
2024-03-11T22:57:08.001Z,9.60
2024-03-11T22:59:36.263Z,9.60
2024-03-11T23:02:09.284Z,9.50
2024-03-11T23:04:38.847Z,9.50
2024-03-11T23:07:08.665Z,9.30
2024-03-11T23:09:36.895Z,9.30
2024-03-11T23:12:05.757Z,9.20
2024-03-11T23:14:34.768Z,9.10
2024-03-11T23:17:05.231Z,9.10
2024-03-11T23:19:34.876Z,9.10
2024-03-11T23:22:03.465Z,9.00
2024-03-11T23:24:33.647Z,9.00
2024-03-11T23:27:02.041Z,8.90
2024-03-11T23:29:30.294Z,9.00
2024-03-11T23:32:01.212Z,9.00
2024-03-11T23:34:29.335Z,9.10
2024-03-11T23:36:58.818Z,9.10
2024-03-11T23:39:30.221Z,9.10
2024-03-11T23:41:58.488Z,9.10
2024-03-11T23:44:27.061Z,9.00
2024-03-11T23:46:55.167Z,9.00
2024-03-11T23:49:25.098Z,9.00
2024-03-11T23:51:53.464Z,9.00
2024-03-11T23:54:23.025Z,9.10
2024-03-11T23:56:52.820Z,9.20
2024-03-11T23:59:21.024Z,9.20
